Time;durP1;ratioP1;P1;durP2;ratioP2;P2;SDS_P1;SDS_P2;PMS_P1;PMS_P2;Temp;Humidity;BMP_temperature;BMP_pressure;BME280_temperature;BME280_humidity;BME280_pressure;Samples;Min_cycle;Max_cycle;Signal;HPM_P1;HPM_P2
2023/11/06 00:01:02;;;;;;;;;;;9.90;99.90;;;;;;5075064;28;20003;-52
2023/11/06 00:03:27;;;;;;;;;;;9.80;99.90;;;;;;5055036;28;19916;-50
2023/11/06 00:05:53;;;;;;;;;;;9.80;99.90;;;;;;5059648;28;19916;-46
2023/11/06 00:08:18;;;;;;;;;;;9.80;99.90;;;;;;5074909;28;20356;-47
2023/11/06 00:10:44;;;;;;;;;;;9.70;99.90;;;;;;5074970;28;19916;-46
2023/11/06 00:13:10;;;;;;;;;;;9.70;99.90;;;;;;5074772;28;20369;-47
2023/11/06 00:15:35;;;;;;;;;;;9.60;99.90;;;;;;5074530;28;19917;-47
2023/11/06 00:18:01;;;;;;;;;;;9.60;99.90;;;;;;5073478;28;19920;-50
2023/11/06 00:20:26;;;;;;;;;;;9.70;99.90;;;;;;5074501;28;20294;-50
2023/11/06 00:22:53;;;;;;;;;;;9.70;99.90;;;;;;5073202;28;19939;-48
2023/11/06 00:25:19;;;;;;;;;;;9.60;99.90;;;;;;5074599;28;19995;-45
2023/11/06 00:27:44;;;;;;;;;;;9.60;99.90;;;;;;5074469;28;20011;-49
2023/11/06 00:30:10;;;;;;;;;;;9.60;99.90;;;;;;5074507;28;19924;-45
2023/11/06 00:32:36;;;;;;;;;;;9.50;99.90;;;;;;5074521;28;20321;-51
2023/11/06 00:35:03;;;;;;;;;;;9.50;99.90;;;;;;5073194;28;19916;-50
2023/11/06 00:37:29;;;;;;;;;;;9.60;99.90;;;;;;5074568;28;19924;-48
2023/11/06 00:39:54;;;;;;;;;;;9.60;99.90;;;;;;5074193;28;20434;-48
2023/11/06 00:42:20;;;;;;;;;;;9.60;99.90;;;;;;5074364;28;19927;-49
2023/11/06 00:44:45;;;;;;;;;;;9.60;99.90;;;;;;5074457;28;19924;-48
2023/11/06 00:47:11;;;;;;;;;;;9.60;99.90;;;;;;5072964;28;20259;-48
2023/11/06 00:49:36;;;;;;;;;;;9.60;99.90;;;;;;5073883;28;20106;-49
2023/11/06 00:52:02;;;;;;;;;;;9.60;99.90;;;;;;5073997;28;19923;-50
2023/11/06 00:54:28;;;;;;;;;;;9.60;99.90;;;;;;5074134;28;20412;-50
2023/11/06 00:56:53;;;;;;;;;;;9.70;99.90;;;;;;5073944;28;20388;-50
2023/11/06 00:59:20;;;;;;;;;;;9.70;99.90;;;;;;5072513;28;19931;-50
2023/11/06 01:01:46;;;;;;;;;;;9.70;99.90;;;;;;5072792;28;20065;-50
2023/11/06 01:04:11;;;;;;;;;;;9.70;99.90;;;;;;5059746;28;20373;-46
2023/11/06 01:06:37;;;;;;;;;;;9.60;99.90;;;;;;5053804;28;20473;-46
2023/11/06 01:09:02;;;;;;;;;;;9.70;99.90;;;;;;5053929;28;19917;-46
2023/11/06 01:11:28;;;;;;;;;;;9.70;99.90;;;;;;5053489;28;19923;-46
2023/11/06 01:13:55;;;;;;;;;;;9.60;99.90;;;;;;5053840;28;19932;-46
2023/11/06 01:16:20;;;;;;;;;;;9.60;99.90;;;;;;5053611;28;20752;-46
2023/11/06 01:18:46;;;;;;;;;;;9.60;99.90;;;;;;5053048;28;20007;-46
2023/11/06 01:21:12;;;;;;;;;;;9.60;99.90;;;;;;5053696;28;19924;-49
2023/11/06 01:23:38;;;;;;;;;;;9.50;99.90;;;;;;5053438;28;19923;-47
2023/11/06 01:26:04;;;;;;;;;;;9.50;99.90;;;;;;5053371;28;19924;-48
2023/11/06 01:28:29;;;;;;;;;;;9.50;99.90;;;;;;5053269;28;19998;-47
2023/11/06 01:30:55;;;;;;;;;;;9.50;99.90;;;;;;5053304;28;20355;-48
2023/11/06 01:33:20;;;;;;;;;;;9.50;99.90;;;;;;5053065;28;20011;-48
2023/11/06 01:35:46;;;;;;;;;;;9.50;99.90;;;;;;5053533;28;19916;-47
2023/11/06 01:38:12;;;;;;;;;;;9.50;99.90;;;;;;5052936;28;19921;-48
2023/11/06 01:40:37;;;;;;;;;;;9.50;99.90;;;;;;5051950;28;19920;-50
2023/11/06 01:43:06;;;;;;;;;;;9.50;99.90;;;;;;5052986;28;19971;-50
2023/11/06 01:45:32;;;;;;;;;;;9.40;99.90;;;;;;5052829;28;19916;-51
2023/11/06 01:47:58;;;;;;;;;;;9.40;99.90;;;;;;5052725;28;19923;-52
2023/11/06 01:50:24;;;;;;;;;;;9.50;99.90;;;;;;5054503;28;19917;-51
2023/11/06 01:52:49;;;;;;;;;;;9.40;99.90;;;;;;5072801;28;20058;-53
2023/11/06 01:55:15;;;;;;;;;;;9.50;99.90;;;;;;5072672;28;19969;-46
2023/11/06 01:57:40;;;;;;;;;;;9.50;99.90;;;;;;5068628;28;19921;-47
2023/11/06 02:00:07;;;;;;;;;;;9.50;99.90;;;;;;5052944;28;19920;-48
2023/11/06 02:02:33;;;;;;;;;;;9.40;99.90;;;;;;5052613;28;19932;-47
2023/11/06 02:04:59;;;;;;;;;;;9.40;99.90;;;;;;5052826;28;19917;-48
2023/11/06 02:07:24;;;;;;;;;;;9.40;99.90;;;;;;5052649;28;20333;-48
2023/11/06 02:09:50;;;;;;;;;;;9.50;99.90;;;;;;5052653;28;19928;-47
2023/11/06 02:12:16;;;;;;;;;;;9.50;99.90;;;;;;5052371;28;20372;-48
2023/11/06 02:14:55;;;;;;;;;;;9.50;99.90;;;;;;5052232;28;19917;-48
2023/11/06 02:17:21;;;;;;;;;;;9.40;99.90;;;;;;5052295;28;19917;-50
2023/11/06 02:19:48;;;;;;;;;;;9.40;99.90;;;;;;5052008;28;19921;-47
2023/11/06 02:22:20;;;;;;;;;;;9.40;99.90;;;;;;5052463;28;19917;-48
2023/11/06 02:24:46;;;;;;;;;;;9.40;99.90;;;;;;5052275;28;19970;-52
2023/11/06 02:27:11;;;;;;;;;;;9.40;99.90;;;;;;5052115;28;19916;-49
2023/11/06 02:29:38;;;;;;;;;;;9.40;99.90;;;;;;5052029;28;20381;-48
2023/11/06 02:32:03;;;;;;;;;;;9.40;99.90;;;;;;5052313;28;19923;-50
2023/11/06 02:34:29;;;;;;;;;;;9.40;99.90;;;;;;5052259;28;19916;-48
2023/11/06 02:36:55;;;;;;;;;;;9.40;99.90;;;;;;5051970;28;19916;-51
2023/11/06 02:39:20;;;;;;;;;;;9.50;99.90;;;;;;5050943;28;19921;-52
2023/11/06 02:41:47;;;;;;;;;;;9.50;99.90;;;;;;5051866;28;19966;-48
2023/11/06 02:44:13;;;;;;;;;;;9.60;99.90;;;;;;5060245;28;19921;-51
2023/11/06 02:46:39;;;;;;;;;;;9.50;99.90;;;;;;5071193;28;19920;-50
2023/11/06 02:49:04;;;;;;;;;;;9.60;99.90;;;;;;5066403;28;19923;-52
2023/11/06 02:51:31;;;;;;;;;;;9.60;99.90;;;;;;5052101;28;19967;-47
2023/11/06 02:53:56;;;;;;;;;;;9.50;99.90;;;;;;5051741;28;19916;-51
2023/11/06 02:56:23;;;;;;;;;;;9.50;99.90;;;;;;5051904;28;20007;-47
2023/11/06 02:58:48;;;;;;;;;;;9.50;99.90;;;;;;5050423;28;19964;-48
2023/11/06 03:01:14;;;;;;;;;;;9.50;99.90;;;;;;5051800;28;20333;-48
2023/11/06 03:03:40;;;;;;;;;;;9.50;99.90;;;;;;5051914;28;19928;-48
2023/11/06 03:06:06;;;;;;;;;;;9.50;99.90;;;;;;5050602;28;20317;-51
2023/11/06 03:08:32;;;;;;;;;;;9.50;99.90;;;;;;5051789;28;20259;-50
2023/11/06 03:10:58;;;;;;;;;;;9.40;99.90;;;;;;5051673;28;20007;-49
2023/11/06 03:13:24;;;;;;;;;;;9.40;99.90;;;;;;5051663;28;19916;-50
2023/11/06 03:15:50;;;;;;;;;;;9.40;99.90;;;;;;5051997;28;19920;-49
2023/11/06 03:18:15;;;;;;;;;;;9.40;99.90;;;;;;5055656;28;19920;-49
2023/11/06 03:20:41;;;;;;;;;;;9.40;99.90;;;;;;5054775;28;19928;-48
2023/11/06 03:23:07;;;;;;;;;;;9.40;99.90;;;;;;5055574;28;20291;-51
2023/11/06 03:25:32;;;;;;;;;;;9.40;99.90;;;;;;5055582;28;19924;-49
2023/11/06 03:27:58;;;;;;;;;;;9.40;99.90;;;;;;5055569;28;20366;-50
2023/11/06 03:30:24;;;;;;;;;;;9.40;99.90;;;;;;5054555;28;19951;-47
2023/11/06 03:32:49;;;;;;;;;;;9.40;99.90;;;;;;5055594;28;19940;-52
2023/11/06 03:35:15;;;;;;;;;;;9.40;99.90;;;;;;5055632;28;19917;-51
2023/11/06 03:37:40;;;;;;;;;;;9.50;99.90;;;;;;5055257;28;19917;-51
2023/11/06 03:40:06;;;;;;;;;;;9.50;99.90;;;;;;5055253;28;19921;-51
2023/11/06 03:42:32;;;;;;;;;;;9.50;99.90;;;;;;5065666;28;20277;-52
2023/11/06 03:44:57;;;;;;;;;;;9.50;99.90;;;;;;5075518;28;19923;-47
2023/11/06 03:47:23;;;;;;;;;;;9.60;99.90;;;;;;5075096;28;19916;-48
2023/11/06 03:49:52;;;;;;;;;;;9.60;99.90;;;;;;5063193;28;20359;-47
2023/11/06 03:52:17;;;;;;;;;;;9.60;99.90;;;;;;5055049;28;19925;-47
2023/11/06 03:54:43;;;;;;;;;;;9.60;99.90;;;;;;5055473;28;19916;-48
2023/11/06 03:57:09;;;;;;;;;;;9.60;99.90;;;;;;5054824;28;19923;-47
2023/11/06 03:59:34;;;;;;;;;;;9.60;99.90;;;;;;5053126;28;19963;-47
2023/11/06 04:02:00;;;;;;;;;;;9.60;99.90;;;;;;5054998;28;19970;-48
2023/11/06 04:04:25;;;;;;;;;;;9.60;99.90;;;;;;5041114;28;19916;-50
2023/11/06 04:06:51;;;;;;;;;;;9.60;99.90;;;;;;5054196;28;19999;-51
2023/11/06 04:09:17;;;;;;;;;;;9.60;99.90;;;;;;5054948;28;20259;-48
2023/11/06 04:11:42;;;;;;;;;;;9.70;99.90;;;;;;5055268;28;19920;-50
2023/11/06 04:14:08;;;;;;;;;;;9.70;99.90;;;;;;5055007;28;20733;-48
2023/11/06 04:16:33;;;;;;;;;;;9.70;99.90;;;;;;5054792;28;19916;-50
2023/11/06 04:18:59;;;;;;;;;;;9.80;99.90;;;;;;5054338;28;19927;-49
2023/11/06 04:21:26;;;;;;;;;;;9.80;99.90;;;;;;5053618;28;19932;-49
2023/11/06 04:23:52;;;;;;;;;;;9.80;99.90;;;;;;5053592;28;19917;-49
2023/11/06 04:26:18;;;;;;;;;;;9.80;99.90;;;;;;5052829;28;19917;-52
2023/11/06 04:28:43;;;;;;;;;;;9.90;99.90;;;;;;5052523;28;19963;-51
2023/11/06 04:31:09;;;;;;;;;;;9.90;99.90;;;;;;5053489;28;19924;-53
2023/11/06 04:33:35;;;;;;;;;;;9.90;99.90;;;;;;5052607;28;19917;-52
2023/11/06 04:36:00;;;;;;;;;;;9.90;99.90;;;;;;5067427;28;19916;-49
2023/11/06 04:38:26;;;;;;;;;;;9.90;99.90;;;;;;5073203;28;19926;-51
2023/11/06 04:40:51;;;;;;;;;;;9.90;99.90;;;;;;5073323;28;20365;-51
2023/11/06 04:43:17;;;;;;;;;;;9.90;99.90;;;;;;5073294;28;19920;-50
2023/11/06 04:45:42;;;;;;;;;;;9.90;99.90;;;;;;5072104;28;20271;-50
2023/11/06 04:48:08;;;;;;;;;;;9.90;99.90;;;;;;5071551;28;19916;-48
2023/11/06 04:50:34;;;;;;;;;;;9.90;99.90;;;;;;5055220;28;19920;-49
2023/11/06 04:53:00;;;;;;;;;;;9.90;99.90;;;;;;5052043;28;20226;-48
2023/11/06 04:55:26;;;;;;;;;;;9.90;99.90;;;;;;5052917;28;20287;-50
2023/11/06 04:57:52;;;;;;;;;;;9.90;99.90;;;;;;5052927;28;19921;-48
2023/11/06 05:00:18;;;;;;;;;;;10.00;99.90;;;;;;5052958;28;20260;-46
2023/11/06 05:02:43;;;;;;;;;;;9.90;99.90;;;;;;5052906;28;19916;-45
2023/11/06 05:05:09;;;;;;;;;;;9.90;99.90;;;;;;5052831;28;19952;-47
2023/11/06 05:07:35;;;;;;;;;;;9.90;99.90;;;;;;5052694;28;19947;-51
2023/11/06 05:10:01;;;;;;;;;;;9.90;99.90;;;;;;5052627;28;19963;-52
2023/11/06 05:12:27;;;;;;;;;;;9.90;99.90;;;;;;5052477;28;19921;-48
2023/11/06 05:14:52;;;;;;;;;;;9.90;99.90;;;;;;5052660;28;19917;-51
2023/11/06 05:17:18;;;;;;;;;;;9.90;99.90;;;;;;5051212;28;19923;-46
2023/11/06 05:19:43;;;;;;;;;;;9.90;99.90;;;;;;5014152;28;1114215;-48
2023/11/06 05:22:09;;;;;;;;;;;9.90;99.90;;;;;;5053568;28;19917;-49
2023/11/06 05:24:35;;;;;;;;;;;9.90;99.90;;;;;;5053258;28;20291;-47
2023/11/06 05:27:01;;;;;;;;;;;9.90;99.90;;;;;;5053499;28;19956;-51
2023/11/06 05:29:27;;;;;;;;;;;9.90;99.90;;;;;;5052073;28;19975;-51
2023/11/06 05:31:52;;;;;;;;;;;9.90;99.90;;;;;;5053465;28;19917;-49
2023/11/06 05:34:18;;;;;;;;;;;9.90;99.90;;;;;;5069400;28;19920;-51
2023/11/06 05:36:43;;;;;;;;;;;9.90;99.90;;;;;;5073384;28;20017;-50
2023/11/06 05:39:11;;;;;;;;;;;9.90;99.90;;;;;;5071839;28;20366;-50
2023/11/06 05:41:37;;;;;;;;;;;9.90;99.90;;;;;;5071366;28;19916;-47
2023/11/06 05:44:03;;;;;;;;;;;9.90;99.90;;;;;;5073117;28;19916;-47
2023/11/06 05:46:29;;;;;;;;;;;9.90;99.90;;;;;;5072868;28;19917;-48
2023/11/06 05:48:55;;;;;;;;;;;9.80;99.90;;;;;;5068692;28;19924;-50
2023/11/06 05:51:21;;;;;;;;;;;9.90;99.90;;;;;;5052906;28;19963;-50
2023/11/06 05:53:46;;;;;;;;;;;9.80;99.90;;;;;;5051801;28;20082;-47
2023/11/06 05:56:12;;;;;;;;;;;9.80;99.90;;;;;;5052015;28;20367;-50
2023/11/06 05:58:37;;;;;;;;;;;9.80;99.90;;;;;;5052696;28;19956;-48
2023/11/06 06:01:04;;;;;;;;;;;9.80;99.90;;;;;;5052817;28;19923;-49
2023/11/06 06:03:30;;;;;;;;;;;9.80;99.90;;;;;;5052856;28;20012;-52
2023/11/06 06:05:55;;;;;;;;;;;9.80;99.90;;;;;;5052664;28;20007;-48
2023/11/06 06:08:21;;;;;;;;;;;9.80;99.90;;;;;;5052802;28;19923;-47
2023/11/06 06:10:47;;;;;;;;;;;9.80;99.90;;;;;;5052830;28;20274;-49
2023/11/06 06:13:12;;;;;;;;;;;9.70;99.90;;;;;;5052854;28;19978;-50
2023/11/06 06:15:38;;;;;;;;;;;9.80;99.90;;;;;;5052430;28;19916;-49
2023/11/06 06:18:03;;;;;;;;;;;9.80;99.90;;;;;;5052804;28;19924;-48
2023/11/06 06:20:29;;;;;;;;;;;9.80;99.90;;;;;;5052551;28;19924;-48
2023/11/06 06:22:54;;;;;;;;;;;9.80;99.90;;;;;;5052318;28;19917;-50
2023/11/06 06:25:20;;;;;;;;;;;9.70;99.90;;;;;;5052452;28;19979;-51
2023/11/06 06:27:46;;;;;;;;;;;9.70;99.90;;;;;;5051556;28;19917;-48
2023/11/06 06:30:14;;;;;;;;;;;9.70;99.90;;;;;;5052100;28;19916;-50
2023/11/06 06:32:41;;;;;;;;;;;9.70;99.90;;;;;;5051016;28;19943;-47
2023/11/06 06:35:06;;;;;;;;;;;9.80;99.90;;;;;;5052159;28;19923;-49
2023/11/06 06:37:32;;;;;;;;;;;9.80;99.90;;;;;;5051918;28;20003;-47
2023/11/06 06:39:58;;;;;;;;;;;9.80;99.90;;;;;;5051956;28;19923;-49
2023/11/06 06:42:23;;;;;;;;;;;9.90;99.90;;;;;;5051095;28;19970;-51
2023/11/06 06:44:49;;;;;;;;;;;9.80;99.90;;;;;;5051878;28;20278;-47
2023/11/06 06:47:14;;;;;;;;;;;9.80;99.90;;;;;;5050752;28;19960;-48
2023/11/06 06:49:40;;;;;;;;;;;9.80;99.90;;;;;;5051655;28;19944;-50
2023/11/06 06:52:09;;;;;;;;;;;9.80;99.90;;;;;;5051762;28;19917;-49
2023/11/06 06:54:35;;;;;;;;;;;9.80;99.90;;;;;;5051823;28;19917;-48
2023/11/06 06:57:02;;;;;;;;;;;9.70;99.90;;;;;;5051638;28;20430;-49
2023/11/06 06:59:28;;;;;;;;;;;9.60;99.90;;;;;;5051764;28;19924;-47
2023/11/06 07:01:53;;;;;;;;;;;9.70;99.90;;;;;;5051907;28;19971;-49
2023/11/06 07:04:19;;;;;;;;;;;9.70;99.90;;;;;;5051414;28;20065;-50
2023/11/06 07:06:45;;;;;;;;;;;9.70;99.90;;;;;;5051761;28;20422;-48
2023/11/06 07:09:10;;;;;;;;;;;9.70;99.90;;;;;;5051935;28;20282;-48
2023/11/06 07:11:36;;;;;;;;;;;9.70;99.90;;;;;;5052206;28;19920;-49
2023/11/06 07:14:02;;;;;;;;;;;9.70;99.90;;;;;;5051906;28;20361;-50
2023/11/06 07:16:27;;;;;;;;;;;9.70;99.90;;;;;;5051752;28;19971;-51
2023/11/06 07:18:53;;;;;;;;;;;9.60;99.90;;;;;;5051493;28;19990;-52
2023/11/06 07:21:18;;;;;;;;;;;9.60;99.90;;;;;;5050287;28;19917;-50
2023/11/06 07:23:44;;;;;;;;;;;9.60;99.90;;;;;;5053817;28;19971;-51
2023/11/06 07:26:10;;;;;;;;;;;9.70;99.90;;;;;;5071838;28;19974;-51
2023/11/06 07:28:36;;;;;;;;;;;9.70;99.90;;;;;;5068758;28;19970;-47
2023/11/06 07:31:02;;;;;;;;;;;9.70;99.90;;;;;;5071492;28;19923;-48
2023/11/06 07:33:27;;;;;;;;;;;9.70;99.90;;;;;;5070415;28;20011;-47
2023/11/06 07:35:53;;;;;;;;;;;9.70;99.90;;;;;;5071310;28;20011;-49
2023/11/06 07:38:18;;;;;;;;;;;9.70;99.90;;;;;;5071469;28;20011;-47
2023/11/06 07:40:44;;;;;;;;;;;9.80;99.90;;;;;;5071156;28;19921;-46
2023/11/06 07:43:10;;;;;;;;;;;9.70;99.90;;;;;;5071587;28;19927;-51
2023/11/06 07:45:36;;;;;;;;;;;9.60;99.90;;;;;;5071316;28;20397;-49
2023/11/06 07:48:03;;;;;;;;;;;9.80;99.90;;;;;;5053798;28;19916;-50
2023/11/06 07:50:29;;;;;;;;;;;9.70;99.90;;;;;;5053389;28;19923;-50
2023/11/06 07:52:56;;;;;;;;;;;9.70;99.90;;;;;;5051685;28;20394;-47
2023/11/06 07:55:22;;;;;;;;;;;9.70;99.90;;;;;;5051444;28;20328;-49
2023/11/06 07:57:49;;;;;;;;;;;9.80;99.90;;;;;;5051900;28;20047;-47
2023/11/06 08:00:15;;;;;;;;;;;9.80;99.90;;;;;;5051791;28;20046;-46
2023/11/06 08:02:41;;;;;;;;;;;9.80;99.90;;;;;;5054163;28;19999;-46
2023/11/06 08:05:08;;;;;;;;;;;9.80;99.90;;;;;;5054132;28;19917;-47
2023/11/06 08:07:34;;;;;;;;;;;9.80;99.90;;;;;;5053753;28;20336;-48
2023/11/06 08:10:00;;;;;;;;;;;9.70;99.90;;;;;;5054920;28;20413;-47
2023/11/06 08:12:25;;;;;;;;;;;9.70;99.90;;;;;;5048896;28;20009;-47
2023/11/06 08:14:51;;;;;;;;;;;9.70;99.90;;;;;;5053910;28;19916;-47
2023/11/06 08:17:17;;;;;;;;;;;9.70;99.90;;;;;;5054693;28;19924;-47
2023/11/06 08:19:42;;;;;;;;;;;9.80;99.90;;;;;;5054242;28;19928;-47
2023/11/06 08:22:11;;;;;;;;;;;9.70;99.90;;;;;;5053755;28;19923;-49
2023/11/06 08:24:38;;;;;;;;;;;9.70;99.90;;;;;;5052788;28;19948;-47
2023/11/06 08:27:03;;;;;;;;;;;9.60;99.90;;;;;;5053525;28;19916;-47
2023/11/06 08:29:29;;;;;;;;;;;9.60;99.90;;;;;;5054270;28;19917;-47
2023/11/06 08:31:55;;;;;;;;;;;9.60;99.90;;;;;;5053164;28;20406;-48
2023/11/06 08:34:21;;;;;;;;;;;9.60;99.90;;;;;;5054276;28;19939;-48
2023/11/06 08:36:47;;;;;;;;;;;9.50;99.90;;;;;;5054464;28;19917;-48
2023/11/06 08:39:12;;;;;;;;;;;9.60;99.90;;;;;;5054176;28;20379;-48
2023/11/06 08:41:38;;;;;;;;;;;9.50;99.90;;;;;;5052974;28;20294;-47
2023/11/06 08:44:04;;;;;;;;;;;9.50;99.90;;;;;;5036593;28;19963;-47
2023/11/06 08:46:29;;;;;;;;;;;9.60;99.90;;;;;;5053799;28;20324;-50
2023/11/06 08:48:55;;;;;;;;;;;9.50;99.90;;;;;;5053975;28;19971;-48
2023/11/06 08:51:21;;;;;;;;;;;9.50;99.90;;;;;;5053230;28;19926;-46
2023/11/06 08:53:46;;;;;;;;;;;9.50;99.90;;;;;;5053839;28;19928;-47
2023/11/06 08:56:18;;;;;;;;;;;9.60;99.90;;;;;;5053887;28;19917;-46
2023/11/06 08:58:44;;;;;;;;;;;9.50;99.90;;;;;;5053768;28;19974;-49
2023/11/06 09:01:10;;;;;;;;;;;9.50;99.90;;;;;;5054083;28;20015;-48
2023/11/06 09:03:39;;;;;;;;;;;9.60;99.90;;;;;;5054108;28;19986;-51
2023/11/06 09:06:05;;;;;;;;;;;9.50;99.90;;;;;;5053843;28;19923;-47
2023/11/06 09:08:31;;;;;;;;;;;9.60;99.90;;;;;;5053911;28;19920;-46
2023/11/06 09:10:57;;;;;;;;;;;9.60;99.90;;;;;;5053705;28;19932;-48
2023/11/06 09:13:22;;;;;;;;;;;9.60;99.90;;;;;;5052634;28;19917;-49
2023/11/06 09:15:49;;;;;;;;;;;9.60;99.90;;;;;;5053464;28;19916;-50
2023/11/06 09:18:19;;;;;;;;;;;9.60;99.90;;;;;;5059164;28;19920;-51
2023/11/06 09:20:47;;;;;;;;;;;9.60;99.90;;;;;;5073493;28;20283;-47
2023/11/06 09:23:13;;;;;;;;;;;9.60;99.90;;;;;;5073675;28;19967;-46
2023/11/06 09:25:38;;;;;;;;;;;9.60;99.90;;;;;;5073629;28;20024;-47
2023/11/06 09:28:04;;;;;;;;;;;9.60;99.90;;;;;;5070133;28;19939;-48
2023/11/06 09:30:30;;;;;;;;;;;9.60;99.90;;;;;;5048459;28;19920;-49
2023/11/06 09:32:56;;;;;;;;;;;9.70;99.90;;;;;;5052209;28;20305;-47
2023/11/06 09:35:25;;;;;;;;;;;9.70;99.90;;;;;;5052791;28;19920;-47
2023/11/06 09:37:50;;;;;;;;;;;9.80;99.90;;;;;;5068165;28;19924;-47
2023/11/06 09:40:20;;;;;;;;;;;9.80;99.90;;;;;;5052834;28;19923;-49
2023/11/06 09:42:47;;;;;;;;;;;9.80;99.90;;;;;;5048931;28;19963;-46
2023/11/06 09:45:13;;;;;;;;;;;9.80;99.90;;;;;;5052887;28;19927;-46
2023/11/06 09:47:46;;;;;;;;;;;9.80;99.90;;;;;;5052516;28;19916;-45
2023/11/06 09:50:13;;;;;;;;;;;9.80;99.90;;;;;;5053110;28;19921;-46
2023/11/06 09:52:39;;;;;;;;;;;9.80;99.90;;;;;;5053101;28;19960;-46
2023/11/06 09:55:05;;;;;;;;;;;9.80;99.90;;;;;;5053060;28;20367;-48
2023/11/06 09:57:31;;;;;;;;;;;9.80;99.90;;;;;;5052976;28;19928;-48
2023/11/06 09:59:57;;;;;;;;;;;9.90;99.90;;;;;;5051863;28;20665;-46
2023/11/06 10:02:23;;;;;;;;;;;9.80;99.90;;;;;;5052949;28;19924;-45
2023/11/06 10:04:48;;;;;;;;;;;9.90;99.90;;;;;;5052934;28;19920;-46
2023/11/06 10:07:32;;;;;;;;;;;9.90;99.90;;;;;;5052805;28;20359;-47
2023/11/06 10:10:10;;;;;;;;;;;10.00;99.90;;;;;;5052800;28;19916;-47
2023/11/06 10:12:35;;;;;;;;;;;10.00;99.90;;;;;;5051692;28;19917;-48
2023/11/06 10:15:06;;;;;;;;;;;10.00;99.90;;;;;;5051416;28;19924;-46
2023/11/06 10:17:37;;;;;;;;;;;10.00;99.90;;;;;;5032890;28;19971;-46
2023/11/06 10:20:37;;;;;;;;;;;10.00;99.90;;;;;;5051845;28;19952;-44
2023/11/06 10:22:56;;;;;;;;;;;10.10;99.90;;;;;;5050657;28;19970;-49
2023/11/06 10:25:28;;;;;;;;;;;10.20;99.90;;;;;;5051783;28;20286;-47
2023/11/06 10:27:57;;;;;;;;;;;10.20;99.90;;;;;;5052149;28;19917;-47
2023/11/06 10:30:23;;;;;;;;;;;10.30;99.90;;;;;;5052103;28;19917;-46
2023/11/06 10:32:49;;;;;;;;;;;10.30;99.90;;;;;;5051610;28;19920;-45
2023/11/06 10:35:18;;;;;;;;;;;10.30;99.90;;;;;;5051520;28;19926;-46
2023/11/06 10:37:47;;;;;;;;;;;10.30;99.90;;;;;;5051818;28;19917;-48
2023/11/06 10:40:14;;;;;;;;;;;10.30;99.90;;;;;;5052240;28;19921;-46
2023/11/06 10:42:43;;;;;;;;;;;10.30;99.90;;;;;;5052270;28;19976;-48
2023/11/06 10:45:15;;;;;;;;;;;10.30;99.90;;;;;;5050830;28;19917;-46
2023/11/06 10:47:46;;;;;;;;;;;10.40;99.90;;;;;;5052020;28;19916;-46
2023/11/06 10:50:23;;;;;;;;;;;10.40;99.90;;;;;;5051683;28;19952;-47
2023/11/06 10:52:53;;;;;;;;;;;10.30;99.90;;;;;;5052255;28;19964;-45
2023/11/06 10:55:19;;;;;;;;;;;10.30;99.90;;;;;;5052228;28;20330;-46
2023/11/06 10:57:45;;;;;;;;;;;10.30;99.90;;;;;;5050646;28;19963;-47
2023/11/06 11:00:18;;;;;;;;;;;10.30;99.90;;;;;;5051805;28;20011;-46
2023/11/06 11:02:44;;;;;;;;;;;10.30;99.90;;;;;;5052005;28;20365;-46
2023/11/06 11:05:14;;;;;;;;;;;10.30;99.90;;;;;;5051923;28;19921;-45
2023/11/06 11:07:41;;;;;;;;;;;10.40;99.90;;;;;;5051929;28;20298;-49
2023/11/06 11:10:14;;;;;;;;;;;10.40;99.90;;;;;;5051563;28;19916;-46
2023/11/06 11:12:43;;;;;;;;;;;10.40;99.90;;;;;;5051638;28;19917;-47
2023/11/06 11:15:09;;;;;;;;;;;10.50;99.90;;;;;;5051855;28;19916;-46
2023/11/06 11:17:35;;;;;;;;;;;10.50;99.90;;;;;;5050320;28;19917;-46
2023/11/06 11:20:09;;;;;;;;;;;10.50;99.90;;;;;;5051581;28;19927;-48
2023/11/06 11:22:53;;;;;;;;;;;10.60;99.90;;;;;;5051601;28;19924;-49
2023/11/06 11:25:37;;;;;;;;;;;10.60;99.90;;;;;;5051787;28;19917;-48
2023/11/06 11:28:14;;;;;;;;;;;10.70;99.90;;;;;;5051313;28;19916;-47
2023/11/06 11:30:40;;;;;;;;;;;10.70;99.90;;;;;;5068094;28;20275;-49
2023/11/06 11:33:06;;;;;;;;;;;10.70;99.90;;;;;;5071434;28;19923;-50
2023/11/06 11:35:38;;;;;;;;;;;10.70;99.90;;;;;;5070805;28;19920;-50
2023/11/06 11:38:03;;;;;;;;;;;10.80;99.90;;;;;;5074921;28;19920;-50
2023/11/06 11:40:41;;;;;;;;;;;10.80;99.90;;;;;;5075441;28;20003;-53
2023/11/06 11:43:28;;;;;;;;;;;10.90;99.90;;;;;;5075394;28;19916;-51
2023/11/06 11:45:53;;;;;;;;;;;10.90;99.90;;;;;;5075045;28;20324;-49
2023/11/06 11:48:19;;;;;;;;;;;11.00;99.90;;;;;;5075363;28;19916;-50
2023/11/06 11:50:48;;;;;;;;;;;11.00;99.90;;;;;;5055578;28;19970;-49
2023/11/06 11:53:30;;;;;;;;;;;11.00;99.90;;;;;;5055376;28;20304;-50
2023/11/06 11:55:56;;;;;;;;;;;11.00;99.90;;;;;;5055126;28;19916;-50
2023/11/06 11:58:21;;;;;;;;;;;11.00;99.90;;;;;;5054905;28;19943;-51
2023/11/06 12:00:47;;;;;;;;;;;10.90;99.90;;;;;;5055179;28;19920;-49
2023/11/06 12:03:13;;;;;;;;;;;10.90;99.90;;;;;;5055159;28;19916;-49
2023/11/06 12:05:39;;;;;;;;;;;10.90;99.90;;;;;;5054840;28;19970;-51
2023/11/06 12:08:14;;;;;;;;;;;10.80;99.90;;;;;;5053731;28;20362;-47
2023/11/06 12:10:41;;;;;;;;;;;10.80;99.90;;;;;;5054721;28;19960;-50
2023/11/06 12:13:13;;;;;;;;;;;10.70;99.90;;;;;;5055005;28;19916;-48
2023/11/06 12:15:39;;;;;;;;;;;10.70;99.90;;;;;;5054693;28;19923;-47
2023/11/06 12:18:08;;;;;;;;;;;10.70;99.90;;;;;;5054788;28;19921;-50
2023/11/06 12:20:34;;;;;;;;;;;10.60;99.90;;;;;;5054604;28;19935;-50
2023/11/06 12:23:03;;;;;;;;;;;10.60;99.90;;;;;;5054541;28;20055;-48
2023/11/06 12:25:37;;;;;;;;;;;10.60;99.90;;;;;;5054658;28;19983;-51
2023/11/06 12:28:10;;;;;;;;;;;10.50;99.90;;;;;;5054547;28;19974;-47
2023/11/06 12:30:40;;;;;;;;;;;10.50;99.90;;;;;;5054480;28;20366;-50
2023/11/06 12:33:10;;;;;;;;;;;10.40;99.90;;;;;;5054324;28;19917;-47
2023/11/06 12:35:39;;;;;;;;;;;10.40;99.90;;;;;;5054340;28;19955;-49
2023/11/06 12:38:04;;;;;;;;;;;10.40;99.90;;;;;;5054094;28;19920;-48
2023/11/06 12:40:30;;;;;;;;;;;10.40;99.90;;;;;;5054222;28;19928;-48
2023/11/06 12:43:03;;;;;;;;;;;10.40;99.90;;;;;;5052969;28;19916;-47
2023/11/06 12:45:36;;;;;;;;;;;10.40;99.90;;;;;;5054244;28;19924;-47
2023/11/06 12:48:23;;;;;;;;;;;10.40;99.90;;;;;;5053796;28;20447;-47
2023/11/06 12:50:59;;;;;;;;;;;10.50;99.90;;;;;;5053072;28;20370;-47
2023/11/06 12:53:25;;;;;;;;;;;10.60;99.90;;;;;;5054301;28;19931;-48
2023/11/06 12:55:50;;;;;;;;;;;10.70;99.90;;;;;;5053873;28;19942;-46
2023/11/06 12:58:25;;;;;;;;;;;10.70;99.90;;;;;;5053981;28;19921;-49
2023/11/06 13:00:59;;;;;;;;;;;10.70;99.90;;;;;;5053799;28;19916;-48
2023/11/06 13:03:27;;;;;;;;;;;10.80;99.90;;;;;;5054140;28;20362;-46
2023/11/06 13:05:56;;;;;;;;;;;10.80;99.90;;;;;;5053577;28;20325;-46
2023/11/06 13:08:26;;;;;;;;;;;10.80;99.90;;;;;;5053871;28;20007;-49
2023/11/06 13:10:52;;;;;;;;;;;10.80;99.90;;;;;;5053626;28;19916;-49
2023/11/06 13:13:18;;;;;;;;;;;10.80;99.90;;;;;;5052564;28;19916;-48
2023/11/06 13:15:44;;;;;;;;;;;10.90;99.90;;;;;;5053443;28;19924;-49
2023/11/06 13:18:10;;;;;;;;;;;11.10;99.90;;;;;;5053754;28;19925;-48
2023/11/06 13:20:43;;;;;;;;;;;11.20;99.90;;;;;;5053484;28;19920;-47
2023/11/06 13:23:10;;;;;;;;;;;11.30;99.90;;;;;;5063955;28;19916;-46
2023/11/06 13:25:36;;;;;;;;;;;11.40;99.90;;;;;;5073304;28;19920;-47
2023/11/06 13:28:02;;;;;;;;;;;11.40;99.90;;;;;;5073210;28;19920;-47
2023/11/06 13:30:28;;;;;;;;;;;11.40;99.90;;;;;;5073525;28;20011;-50
2023/11/06 13:32:54;;;;;;;;;;;11.40;99.90;;;;;;5073031;28;19916;-47
2023/11/06 13:35:20;;;;;;;;;;;11.40;99.90;;;;;;5069890;28;20023;-47
2023/11/06 13:37:50;;;;;;;;;;;11.40;99.90;;;;;;5068187;28;19978;-47
2023/11/06 13:40:22;;;;;;;;;;;11.40;99.90;;;;;;5070906;28;19916;-45
2023/11/06 13:42:52;;;;;;;;;;;11.50;99.90;;;;;;5067377;28;19920;-47
2023/11/06 13:45:18;;;;;;;;;;;11.40;99.90;;;;;;5071942;28;19970;-47
2023/11/06 13:47:44;;;;;;;;;;;11.40;99.90;;;;;;5073040;28;19917;-47
2023/11/06 13:50:23;;;;;;;;;;;11.40;99.90;;;;;;5058192;28;19920;-46
2023/11/06 13:52:50;;;;;;;;;;;11.30;99.90;;;;;;5052997;28;20286;-48
2023/11/06 13:55:26;;;;;;;;;;;11.30;99.90;;;;;;5053002;28;19917;-46
2023/11/06 13:57:51;;;;;;;;;;;11.30;99.90;;;;;;5052863;28;19968;-47
2023/11/06 14:00:32;;;;;;;;;;;11.30;99.90;;;;;;5052185;28;19995;-45
2023/11/06 14:02:58;;;;;;;;;;;11.30;99.90;;;;;;5040683;28;20003;-49
2023/11/06 14:05:25;;;;;;;;;;;11.30;99.90;;;;;;5051678;28;19917;-48
2023/11/06 14:07:51;;;;;;;;;;;11.30;99.90;;;;;;5039009;28;19923;-48
2023/11/06 14:10:32;;;;;;;;;;;11.20;99.90;;;;;;5052761;28;20275;-48
2023/11/06 14:13:00;;;;;;;;;;;11.10;99.90;;;;;;5052592;28;19917;-48
2023/11/06 14:15:26;;;;;;;;;;;11.10;99.90;;;;;;5052659;28;19921;-50
2023/11/06 14:17:55;;;;;;;;;;;11.10;99.90;;;;;;5052184;28;20355;-45
2023/11/06 14:20:21;;;;;;;;;;;11.20;99.90;;;;;;5051259;28;20238;-46
2023/11/06 14:22:47;;;;;;;;;;;11.10;99.90;;;;;;5052732;28;19921;-49
2023/11/06 14:25:13;;;;;;;;;;;11.10;99.90;;;;;;5052330;28;19923;-47